sensor_id;sensor_type;location;lat;lon;timestamp;temperature;humidity
24262;DHT22;12385;51.412;5.540;2023-08-17T00:00:12;21.30;99.90
24262;DHT22;12385;51.412;5.540;2023-08-17T00:02:40;21.30;99.90
24262;DHT22;12385;51.412;5.540;2023-08-17T00:05:06;21.30;99.90
24262;DHT22;12385;51.412;5.540;2023-08-17T00:07:33;21.20;99.90
24262;DHT22;12385;51.412;5.540;2023-08-17T00:09:58;21.20;99.90
24262;DHT22;12385;51.412;5.540;2023-08-17T00:12:24;21.10;99.90
24262;DHT22;12385;51.412;5.540;2023-08-17T00:14:52;21.10;99.90
24262;DHT22;12385;51.412;5.540;2023-08-17T00:17:17;21.10;99.90
24262;DHT22;12385;51.412;5.540;2023-08-17T00:19:43;21.10;99.90
24262;DHT22;12385;51.412;5.540;2023-08-17T00:22:08;21.10;99.90
24262;DHT22;12385;51.412;5.540;2023-08-17T00:24:34;21.00;99.90
24262;DHT22;12385;51.412;5.540;2023-08-17T00:27:00;20.90;99.90
24262;DHT22;12385;51.412;5.540;2023-08-17T00:29:25;20.90;99.90
24262;DHT22;12385;51.412;5.540;2023-08-17T00:31:51;20.90;99.90
24262;DHT22;12385;51.412;5.540;2023-08-17T00:34:18;20.90;99.90
24262;DHT22;12385;51.412;5.540;2023-08-17T00:36:43;20.90;99.90
24262;DHT22;12385;51.412;5.540;2023-08-17T00:39:09;20.90;99.90
24262;DHT22;12385;51.412;5.540;2023-08-17T00:41:35;20.80;99.90
24262;DHT22;12385;51.412;5.540;2023-08-17T00:44:01;20.80;99.90
24262;DHT22;12385;51.412;5.540;2023-08-17T00:46:27;20.80;99.90
24262;DHT22;12385;51.412;5.540;2023-08-17T00:48:54;20.80;99.90
24262;DHT22;12385;51.412;5.540;2023-08-17T00:51:25;20.70;99.90
24262;DHT22;12385;51.412;5.540;2023-08-17T00:53:53;20.70;99.90
24262;DHT22;12385;51.412;5.540;2023-08-17T00:56:19;20.70;99.90
24262;DHT22;12385;51.412;5.540;2023-08-17T00:58:45;20.70;99.90
24262;DHT22;12385;51.412;5.540;2023-08-17T01:01:11;20.70;99.90
24262;DHT22;12385;51.412;5.540;2023-08-17T01:03:38;20.70;99.90
24262;DHT22;12385;51.412;5.540;2023-08-17T01:06:06;20.60;99.90
24262;DHT22;12385;51.412;5.540;2023-08-17T01:08:31;20.70;99.90
24262;DHT22;12385;51.412;5.540;2023-08-17T01:13:46;20.60;99.90
24262;DHT22;12385;51.412;5.540;2023-08-17T01:16:21;20.60;99.90
24262;DHT22;12385;51.412;5.540;2023-08-17T01:18:48;20.50;99.90
24262;DHT22;12385;51.412;5.540;2023-08-17T01:21:17;20.50;99.90
24262;DHT22;12385;51.412;5.540;2023-08-17T01:23:45;20.50;99.90
24262;DHT22;12385;51.412;5.540;2023-08-17T01:26:11;20.50;99.90
24262;DHT22;12385;51.412;5.540;2023-08-17T01:28:44;20.50;99.90
24262;DHT22;12385;51.412;5.540;2023-08-17T01:31:21;20.40;99.90
24262;DHT22;12385;51.412;5.540;2023-08-17T01:34:10;20.40;99.90
24262;DHT22;12385;51.412;5.540;2023-08-17T01:36:47;20.40;99.90
24262;DHT22;12385;51.412;5.540;2023-08-17T01:39:16;20.30;99.90
24262;DHT22;12385;51.412;5.540;2023-08-17T01:41:43;20.20;99.90
24262;DHT22;12385;51.412;5.540;2023-08-17T01:44:12;20.20;99.90
24262;DHT22;12385;51.412;5.540;2023-08-17T01:46:39;20.20;99.90
24262;DHT22;12385;51.412;5.540;2023-08-17T01:49:04;20.20;99.90
24262;DHT22;12385;51.412;5.540;2023-08-17T01:51:30;20.10;99.90
24262;DHT22;12385;51.412;5.540;2023-08-17T01:53:55;20.10;99.90
24262;DHT22;12385;51.412;5.540;2023-08-17T01:56:21;20.10;99.90
24262;DHT22;12385;51.412;5.540;2023-08-17T01:58:47;20.10;99.90
24262;DHT22;12385;51.412;5.540;2023-08-17T02:01:12;20.10;99.90
24262;DHT22;12385;51.412;5.540;2023-08-17T02:03:38;20.10;99.90
24262;DHT22;12385;51.412;5.540;2023-08-17T02:06:03;20.10;99.90
24262;DHT22;12385;51.412;5.540;2023-08-17T02:08:30;20.10;99.90
24262;DHT22;12385;51.412;5.540;2023-08-17T02:10:55;20.00;99.90
24262;DHT22;12385;51.412;5.540;2023-08-17T02:13:21;20.00;99.90
24262;DHT22;12385;51.412;5.540;2023-08-17T02:15:47;20.00;99.90
24262;DHT22;12385;51.412;5.540;2023-08-17T02:18:12;20.00;99.90
24262;DHT22;12385;51.412;5.540;2023-08-17T02:20:38;20.00;99.90
24262;DHT22;12385;51.412;5.540;2023-08-17T02:23:04;20.00;99.90
24262;DHT22;12385;51.412;5.540;2023-08-17T02:25:29;20.00;99.90
24262;DHT22;12385;51.412;5.540;2023-08-17T02:28:03;20.00;99.90
24262;DHT22;12385;51.412;5.540;2023-08-17T02:30:29;20.00;99.90
24262;DHT22;12385;51.412;5.540;2023-08-17T02:32:55;20.00;99.90
24262;DHT22;12385;51.412;5.540;2023-08-17T02:35:20;20.00;99.90
24262;DHT22;12385;51.412;5.540;2023-08-17T02:37:46;20.00;99.90
24262;DHT22;12385;51.412;5.540;2023-08-17T02:40:12;20.10;99.90
24262;DHT22;12385;51.412;5.540;2023-08-17T02:42:37;20.10;99.90
24262;DHT22;12385;51.412;5.540;2023-08-17T02:45:06;20.00;99.90
24262;DHT22;12385;51.412;5.540;2023-08-17T02:47:31;20.00;99.90
24262;DHT22;12385;51.412;5.540;2023-08-17T02:49:57;20.00;99.90
24262;DHT22;12385;51.412;5.540;2023-08-17T02:52:23;20.00;99.90
24262;DHT22;12385;51.412;5.540;2023-08-17T02:54:48;19.90;99.90
24262;DHT22;12385;51.412;5.540;2023-08-17T02:57:14;19.90;99.90
24262;DHT22;12385;51.412;5.540;2023-08-17T02:59:39;19.90;99.90
24262;DHT22;12385;51.412;5.540;2023-08-17T03:02:05;19.90;99.90
24262;DHT22;12385;51.412;5.540;2023-08-17T03:04:31;19.90;99.90
24262;DHT22;12385;51.412;5.540;2023-08-17T03:06:56;19.80;99.90
24262;DHT22;12385;51.412;5.540;2023-08-17T03:09:22;19.80;99.90
24262;DHT22;12385;51.412;5.540;2023-08-17T03:11:48;19.80;99.90
24262;DHT22;12385;51.412;5.540;2023-08-17T03:14:13;19.80;99.90
24262;DHT22;12385;51.412;5.540;2023-08-17T03:16:39;19.80;99.90
24262;DHT22;12385;51.412;5.540;2023-08-17T03:19:05;19.70;99.90
24262;DHT22;12385;51.412;5.540;2023-08-17T03:21:33;19.70;99.90
24262;DHT22;12385;51.412;5.540;2023-08-17T03:23:59;19.70;99.90
24262;DHT22;12385;51.412;5.540;2023-08-17T03:26:24;19.70;99.90
24262;DHT22;12385;51.412;5.540;2023-08-17T03:28:50;19.70;99.90
24262;DHT22;12385;51.412;5.540;2023-08-17T03:31:16;19.70;99.90
24262;DHT22;12385;51.412;5.540;2023-08-17T03:33:41;19.70;99.90
24262;DHT22;12385;51.412;5.540;2023-08-17T03:36:07;19.60;99.90
24262;DHT22;12385;51.412;5.540;2023-08-17T03:38:32;19.60;99.90
24262;DHT22;12385;51.412;5.540;2023-08-17T03:40:58;19.60;99.90
24262;DHT22;12385;51.412;5.540;2023-08-17T03:43:24;19.60;99.90
24262;DHT22;12385;51.412;5.540;2023-08-17T03:45:50;19.60;99.90
24262;DHT22;12385;51.412;5.540;2023-08-17T03:48:16;19.60;99.90
24262;DHT22;12385;51.412;5.540;2023-08-17T03:50:41;19.60;99.90
24262;DHT22;12385;51.412;5.540;2023-08-17T03:53:07;19.50;99.90
24262;DHT22;12385;51.412;5.540;2023-08-17T03:55:33;19.50;99.90
24262;DHT22;12385;51.412;5.540;2023-08-17T03:57:58;19.50;99.90
24262;DHT22;12385;51.412;5.540;2023-08-17T04:00:24;19.50;99.90
24262;DHT22;12385;51.412;5.540;2023-08-17T04:02:49;19.50;99.90
24262;DHT22;12385;51.412;5.540;2023-08-17T04:05:15;19.50;99.90
24262;DHT22;12385;51.412;5.540;2023-08-17T04:07:40;19.50;99.90
24262;DHT22;12385;51.412;5.540;2023-08-17T04:10:06;19.50;99.90
24262;DHT22;12385;51.412;5.540;2023-08-17T04:12:32;19.50;99.90
24262;DHT22;12385;51.412;5.540;2023-08-17T04:14:58;19.50;99.90
24262;DHT22;12385;51.412;5.540;2023-08-17T04:17:24;19.50;99.90
24262;DHT22;12385;51.412;5.540;2023-08-17T04:19:51;19.50;99.90
24262;DHT22;12385;51.412;5.540;2023-08-17T04:22:17;19.50;99.90
24262;DHT22;12385;51.412;5.540;2023-08-17T04:24:43;19.40;99.90
24262;DHT22;12385;51.412;5.540;2023-08-17T04:27:08;19.40;99.90
24262;DHT22;12385;51.412;5.540;2023-08-17T04:29:34;19.40;99.90
24262;DHT22;12385;51.412;5.540;2023-08-17T04:31:59;19.40;99.90
24262;DHT22;12385;51.412;5.540;2023-08-17T04:34:25;19.40;99.90
24262;DHT22;12385;51.412;5.540;2023-08-17T04:36:51;19.40;99.90
24262;DHT22;12385;51.412;5.540;2023-08-17T04:39:16;19.40;99.90
24262;DHT22;12385;51.412;5.540;2023-08-17T04:41:42;19.40;99.90
24262;DHT22;12385;51.412;5.540;2023-08-17T04:44:08;19.30;99.90
24262;DHT22;12385;51.412;5.540;2023-08-17T04:46:34;19.30;99.90
24262;DHT22;12385;51.412;5.540;2023-08-17T04:49:00;19.30;99.90
24262;DHT22;12385;51.412;5.540;2023-08-17T04:51:26;19.20;99.90
24262;DHT22;12385;51.412;5.540;2023-08-17T04:53:51;19.30;99.90
24262;DHT22;12385;51.412;5.540;2023-08-17T04:56:17;19.20;99.90
24262;DHT22;12385;51.412;5.540;2023-08-17T04:58:43;19.20;99.90
24262;DHT22;12385;51.412;5.540;2023-08-17T05:01:08;19.30;99.90
24262;DHT22;12385;51.412;5.540;2023-08-17T05:03:35;19.30;99.90
24262;DHT22;12385;51.412;5.540;2023-08-17T05:06:01;19.20;99.90
24262;DHT22;12385;51.412;5.540;2023-08-17T05:08:27;19.20;99.90
24262;DHT22;12385;51.412;5.540;2023-08-17T05:10:53;19.20;99.90
24262;DHT22;12385;51.412;5.540;2023-08-17T05:13:19;19.20;99.90
24262;DHT22;12385;51.412;5.540;2023-08-17T05:15:45;19.20;99.90
24262;DHT22;12385;51.412;5.540;2023-08-17T05:18:11;19.20;99.90
24262;DHT22;12385;51.412;5.540;2023-08-17T05:20:36;19.20;99.90
24262;DHT22;12385;51.412;5.540;2023-08-17T05:23:02;19.20;99.90
24262;DHT22;12385;51.412;5.540;2023-08-17T05:25:28;19.20;99.90
24262;DHT22;12385;51.412;5.540;2023-08-17T05:27:55;19.30;99.90
24262;DHT22;12385;51.412;5.540;2023-08-17T05:30:20;19.40;99.90
24262;DHT22;12385;51.412;5.540;2023-08-17T05:32:46;19.40;99.90
24262;DHT22;12385;51.412;5.540;2023-08-17T05:35:12;19.40;99.90
24262;DHT22;12385;51.412;5.540;2023-08-17T05:37:38;19.40;99.90
24262;DHT22;12385;51.412;5.540;2023-08-17T05:40:04;19.40;99.90
24262;DHT22;12385;51.412;5.540;2023-08-17T05:42:30;19.40;99.90
24262;DHT22;12385;51.412;5.540;2023-08-17T05:44:56;19.40;99.90
24262;DHT22;12385;51.412;5.540;2023-08-17T05:47:21;19.40;99.90
24262;DHT22;12385;51.412;5.540;2023-08-17T05:49:47;19.40;99.90
24262;DHT22;12385;51.412;5.540;2023-08-17T05:52:12;19.30;99.90
24262;DHT22;12385;51.412;5.540;2023-08-17T05:54:38;19.30;99.90
24262;DHT22;12385;51.412;5.540;2023-08-17T05:57:04;19.30;99.90
24262;DHT22;12385;51.412;5.540;2023-08-17T05:59:29;19.30;99.90
24262;DHT22;12385;51.412;5.540;2023-08-17T06:01:55;19.30;99.90
24262;DHT22;12385;51.412;5.540;2023-08-17T06:04:21;19.20;99.90
24262;DHT22;12385;51.412;5.540;2023-08-17T06:06:46;19.20;99.90
24262;DHT22;12385;51.412;5.540;2023-08-17T06:09:12;19.10;99.90
24262;DHT22;12385;51.412;5.540;2023-08-17T06:11:38;19.10;99.90
24262;DHT22;12385;51.412;5.540;2023-08-17T06:14:04;19.10;99.90
24262;DHT22;12385;51.412;5.540;2023-08-17T06:16:29;19.20;99.90
24262;DHT22;12385;51.412;5.540;2023-08-17T06:18:55;19.10;99.90
24262;DHT22;12385;51.412;5.540;2023-08-17T06:21:21;19.10;99.90
24262;DHT22;12385;51.412;5.540;2023-08-17T06:23:46;19.20;99.90
24262;DHT22;12385;51.412;5.540;2023-08-17T06:26:12;19.20;99.90
24262;DHT22;12385;51.412;5.540;2023-08-17T06:28:38;19.30;99.90
24262;DHT22;12385;51.412;5.540;2023-08-17T06:31:04;19.40;99.90
24262;DHT22;12385;51.412;5.540;2023-08-17T06:33:29;19.50;99.90
24262;DHT22;12385;51.412;5.540;2023-08-17T06:35:55;19.50;99.90
24262;DHT22;12385;51.412;5.540;2023-08-17T06:38:20;19.60;99.90
24262;DHT22;12385;51.412;5.540;2023-08-17T06:40:46;19.60;99.90
24262;DHT22;12385;51.412;5.540;2023-08-17T06:43:13;19.60;99.90
24262;DHT22;12385;51.412;5.540;2023-08-17T06:45:38;19.60;99.90
24262;DHT22;12385;51.412;5.540;2023-08-17T06:48:04;19.60;99.90
24262;DHT22;12385;51.412;5.540;2023-08-17T06:50:30;19.60;99.90
24262;DHT22;12385;51.412;5.540;2023-08-17T06:52:56;19.60;99.90
24262;DHT22;12385;51.412;5.540;2023-08-17T06:55:21;19.60;99.90
24262;DHT22;12385;51.412;5.540;2023-08-17T06:57:47;19.70;99.90
24262;DHT22;12385;51.412;5.540;2023-08-17T07:00:17;19.70;99.90
24262;DHT22;12385;51.412;5.540;2023-08-17T07:02:48;19.80;99.90
24262;DHT22;12385;51.412;5.540;2023-08-17T07:05:15;19.80;99.90
24262;DHT22;12385;51.412;5.540;2023-08-17T07:07:40;19.90;99.90
24262;DHT22;12385;51.412;5.540;2023-08-17T07:10:08;19.90;99.90
24262;DHT22;12385;51.412;5.540;2023-08-17T07:12:33;19.90;99.90
24262;DHT22;12385;51.412;5.540;2023-08-17T07:14:59;19.90;99.90
24262;DHT22;12385;51.412;5.540;2023-08-17T07:17:24;20.00;99.90
24262;DHT22;12385;51.412;5.540;2023-08-17T07:19:50;20.00;99.90
24262;DHT22;12385;51.412;5.540;2023-08-17T07:22:15;20.00;99.90
24262;DHT22;12385;51.412;5.540;2023-08-17T07:24:42;20.00;99.90
24262;DHT22;12385;51.412;5.540;2023-08-17T07:27:09;20.00;99.90
24262;DHT22;12385;51.412;5.540;2023-08-17T07:29:35;20.00;99.90
24262;DHT22;12385;51.412;5.540;2023-08-17T07:32:01;20.10;99.90
24262;DHT22;12385;51.412;5.540;2023-08-17T07:34:28;20.10;99.90
24262;DHT22;12385;51.412;5.540;2023-08-17T07:36:55;20.10;99.90
24262;DHT22;12385;51.412;5.540;2023-08-17T07:39:21;20.10;99.90
24262;DHT22;12385;51.412;5.540;2023-08-17T07:41:46;20.20;99.90
24262;DHT22;12385;51.412;5.540;2023-08-17T07:44:12;20.20;99.90
24262;DHT22;12385;51.412;5.540;2023-08-17T07:46:38;20.20;99.90
24262;DHT22;12385;51.412;5.540;2023-08-17T07:49:03;20.20;99.90
24262;DHT22;12385;51.412;5.540;2023-08-17T07:51:29;20.20;99.90
24262;DHT22;12385;51.412;5.540;2023-08-17T07:53:58;20.30;99.90
24262;DHT22;12385;51.412;5.540;2023-08-17T07:56:23;20.30;99.90
24262;DHT22;12385;51.412;5.540;2023-08-17T07:58:49;20.30;99.90
24262;DHT22;12385;51.412;5.540;2023-08-17T08:01:15;20.30;99.90
24262;DHT22;12385;51.412;5.540;2023-08-17T08:03:40;20.30;99.90
24262;DHT22;12385;51.412;5.540;2023-08-17T08:06:06;20.30;99.90
24262;DHT22;12385;51.412;5.540;2023-08-17T08:08:31;20.30;99.90
24262;DHT22;12385;51.412;5.540;2023-08-17T08:10:58;20.30;99.90
24262;DHT22;12385;51.412;5.540;2023-08-17T08:13:24;20.30;99.90
24262;DHT22;12385;51.412;5.540;2023-08-17T08:15:49;20.30;99.90
24262;DHT22;12385;51.412;5.540;2023-08-17T08:18:15;20.30;99.90
24262;DHT22;12385;51.412;5.540;2023-08-17T08:20:41;20.30;99.90
24262;DHT22;12385;51.412;5.540;2023-08-17T08:23:06;20.40;99.90
24262;DHT22;12385;51.412;5.540;2023-08-17T08:25:32;20.40;99.90
24262;DHT22;12385;51.412;5.540;2023-08-17T08:27:57;20.40;99.90
24262;DHT22;12385;51.412;5.540;2023-08-17T08:30:23;20.40;99.90
24262;DHT22;12385;51.412;5.540;2023-08-17T08:32:50;20.50;99.90
24262;DHT22;12385;51.412;5.540;2023-08-17T08:35:15;20.50;99.90
24262;DHT22;12385;51.412;5.540;2023-08-17T08:37:41;20.60;99.90
24262;DHT22;12385;51.412;5.540;2023-08-17T08:40:11;20.50;99.90
24262;DHT22;12385;51.412;5.540;2023-08-17T08:42:37;20.50;99.90
24262;DHT22;12385;51.412;5.540;2023-08-17T08:45:03;20.50;99.90
24262;DHT22;12385;51.412;5.540;2023-08-17T08:47:30;20.40;99.90
24262;DHT22;12385;51.412;5.540;2023-08-17T08:49:59;20.50;99.90
24262;DHT22;12385;51.412;5.540;2023-08-17T08:52:34;20.40;99.90
24262;DHT22;12385;51.412;5.540;2023-08-17T08:55:07;20.40;99.90
24262;DHT22;12385;51.412;5.540;2023-08-17T08:57:36;20.40;99.90
24262;DHT22;12385;51.412;5.540;2023-08-17T09:00:02;20.40;99.90
24262;DHT22;12385;51.412;5.540;2023-08-17T09:02:28;20.50;99.90
24262;DHT22;12385;51.412;5.540;2023-08-17T09:04:55;20.50;99.90
24262;DHT22;12385;51.412;5.540;2023-08-17T09:07:22;20.60;99.90
24262;DHT22;12385;51.412;5.540;2023-08-17T09:09:48;20.60;99.90
24262;DHT22;12385;51.412;5.540;2023-08-17T09:12:14;20.70;99.90
24262;DHT22;12385;51.412;5.540;2023-08-17T09:14:39;20.70;99.90
24262;DHT22;12385;51.412;5.540;2023-08-17T09:17:06;20.70;99.90
24262;DHT22;12385;51.412;5.540;2023-08-17T09:19:35;20.80;99.90
24262;DHT22;12385;51.412;5.540;2023-08-17T09:22:01;20.80;99.90
24262;DHT22;12385;51.412;5.540;2023-08-17T09:24:36;20.70;99.90
24262;DHT22;12385;51.412;5.540;2023-08-17T09:27:02;20.70;99.90
24262;DHT22;12385;51.412;5.540;2023-08-17T09:29:28;20.80;99.90
24262;DHT22;12385;51.412;5.540;2023-08-17T09:32:01;20.80;99.90
24262;DHT22;12385;51.412;5.540;2023-08-17T09:34:31;20.90;99.90
24262;DHT22;12385;51.412;5.540;2023-08-17T09:37:02;20.90;99.90
24262;DHT22;12385;51.412;5.540;2023-08-17T09:39:28;21.00;99.90
24262;DHT22;12385;51.412;5.540;2023-08-17T09:41:55;20.90;99.90
24262;DHT22;12385;51.412;5.540;2023-08-17T09:44:20;21.00;99.90
24262;DHT22;12385;51.412;5.540;2023-08-17T09:46:47;21.00;99.90
24262;DHT22;12385;51.412;5.540;2023-08-17T09:49:13;21.00;99.90
24262;DHT22;12385;51.412;5.540;2023-08-17T09:51:42;21.00;99.90
24262;DHT22;12385;51.412;5.540;2023-08-17T09:54:08;21.00;99.90
24262;DHT22;12385;51.412;5.540;2023-08-17T09:56:40;21.00;99.90
24262;DHT22;12385;51.412;5.540;2023-08-17T09:59:06;21.00;99.90
24262;DHT22;12385;51.412;5.540;2023-08-17T10:01:32;21.00;99.90
24262;DHT22;12385;51.412;5.540;2023-08-17T10:03:58;21.00;99.90
24262;DHT22;12385;51.412;5.540;2023-08-17T10:06:26;21.00;99.90
24262;DHT22;12385;51.412;5.540;2023-08-17T10:08:55;21.00;99.90
24262;DHT22;12385;51.412;5.540;2023-08-17T10:11:23;21.10;99.90
24262;DHT22;12385;51.412;5.540;2023-08-17T10:13:59;21.10;99.90
24262;DHT22;12385;51.412;5.540;2023-08-17T10:16:38;21.20;99.90
24262;DHT22;12385;51.412;5.540;2023-08-17T10:24:43;21.30;99.90
24262;DHT22;12385;51.412;5.540;2023-08-17T10:27:10;21.40;99.90
24262;DHT22;12385;51.412;5.540;2023-08-17T10:29:36;21.50;99.90
24262;DHT22;12385;51.412;5.540;2023-08-17T10:32:03;21.60;99.90
24262;DHT22;12385;51.412;5.540;2023-08-17T10:34:30;21.70;99.90
24262;DHT22;12385;51.412;5.540;2023-08-17T10:36:56;21.90;99.90
24262;DHT22;12385;51.412;5.540;2023-08-17T10:39:29;22.00;99.90
24262;DHT22;12385;51.412;5.540;2023-08-17T10:41:56;22.20;99.90
24262;DHT22;12385;51.412;5.540;2023-08-17T10:44:38;22.30;99.90
24262;DHT22;12385;51.412;5.540;2023-08-17T10:47:27;22.50;99.90
24262;DHT22;12385;51.412;5.540;2023-08-17T10:52:32;22.80;99.90
24262;DHT22;12385;51.412;5.540;2023-08-17T10:55:06;22.90;99.90
24262;DHT22;12385;51.412;5.540;2023-08-17T10:57:39;23.00;99.90
24262;DHT22;12385;51.412;5.540;2023-08-17T11:00:13;23.10;99.90
24262;DHT22;12385;51.412;5.540;2023-08-17T11:02:39;23.10;99.90
24262;DHT22;12385;51.412;5.540;2023-08-17T11:05:05;23.20;99.90
24262;DHT22;12385;51.412;5.540;2023-08-17T11:07:44;23.20;99.90
24262;DHT22;12385;51.412;5.540;2023-08-17T11:12:46;23.40;99.90
24262;DHT22;12385;51.412;5.540;2023-08-17T11:15:12;23.40;99.90
24262;DHT22;12385;51.412;5.540;2023-08-17T11:17:37;23.40;99.90
24262;DHT22;12385;51.412;5.540;2023-08-17T11:20:04;23.40;99.90
24262;DHT22;12385;51.412;5.540;2023-08-17T11:22:29;23.40;99.90
24262;DHT22;12385;51.412;5.540;2023-08-17T11:24:55;23.50;99.90
24262;DHT22;12385;51.412;5.540;2023-08-17T11:27:22;23.50;99.90
24262;DHT22;12385;51.412;5.540;2023-08-17T11:29:47;23.50;99.90
24262;DHT22;12385;51.412;5.540;2023-08-17T11:32:16;23.50;99.90
24262;DHT22;12385;51.412;5.540;2023-08-17T11:34:43;23.50;99.90
24262;DHT22;12385;51.412;5.540;2023-08-17T11:37:11;23.50;99.90
24262;DHT22;12385;51.412;5.540;2023-08-17T11:39:37;23.60;99.90
24262;DHT22;12385;51.412;5.540;2023-08-17T11:42:03;23.60;99.90
24262;DHT22;12385;51.412;5.540;2023-08-17T11:44:29;23.60;99.90
24262;DHT22;12385;51.412;5.540;2023-08-17T11:46:55;23.60;99.90
24262;DHT22;12385;51.412;5.540;2023-08-17T11:49:20;23.60;99.90
24262;DHT22;12385;51.412;5.540;2023-08-17T11:51:49;23.60;99.90
24262;DHT22;12385;51.412;5.540;2023-08-17T11:54:16;23.50;99.90
24262;DHT22;12385;51.412;5.540;2023-08-17T11:56:42;23.40;99.90
24262;DHT22;12385;51.412;5.540;2023-08-17T11:59:11;23.30;99.90
24262;DHT22;12385;51.412;5.540;2023-08-17T12:01:44;23.20;99.90
24262;DHT22;12385;51.412;5.540;2023-08-17T12:04:10;23.20;99.90
24262;DHT22;12385;51.412;5.540;2023-08-17T12:06:37;23.10;99.90
24262;DHT22;12385;51.412;5.540;2023-08-17T12:09:07;23.10;99.90
24262;DHT22;12385;51.412;5.540;2023-08-17T12:11:33;23.10;99.90
24262;DHT22;12385;51.412;5.540;2023-08-17T12:13:59;23.10;99.90
24262;DHT22;12385;51.412;5.540;2023-08-17T12:16:25;23.00;99.90
24262;DHT22;12385;51.412;5.540;2023-08-17T12:18:51;23.00;99.90
24262;DHT22;12385;51.412;5.540;2023-08-17T12:21:22;23.00;99.90
24262;DHT22;12385;51.412;5.540;2023-08-17T12:23:48;23.00;99.90
24262;DHT22;12385;51.412;5.540;2023-08-17T12:26:21;23.00;99.90
24262;DHT22;12385;51.412;5.540;2023-08-17T12:28:47;23.00;99.90
24262;DHT22;12385;51.412;5.540;2023-08-17T12:31:14;23.00;99.90
24262;DHT22;12385;51.412;5.540;2023-08-17T12:33:39;23.00;99.90
24262;DHT22;12385;51.412;5.540;2023-08-17T12:36:05;23.00;99.90
24262;DHT22;12385;51.412;5.540;2023-08-17T12:38:32;23.00;99.90
24262;DHT22;12385;51.412;5.540;2023-08-17T12:40:57;23.00;99.90
24262;DHT22;12385;51.412;5.540;2023-08-17T12:43:23;23.00;99.90
24262;DHT22;12385;51.412;5.540;2023-08-17T12:45:48;23.00;99.90
24262;DHT22;12385;51.412;5.540;2023-08-17T12:48:14;23.10;99.90
24262;DHT22;12385;51.412;5.540;2023-08-17T12:50:40;23.10;99.90
24262;DHT22;12385;51.412;5.540;2023-08-17T12:53:06;23.10;99.90
24262;DHT22;12385;51.412;5.540;2023-08-17T12:55:31;23.20;99.90
24262;DHT22;12385;51.412;5.540;2023-08-17T12:57:57;23.10;99.90
24262;DHT22;12385;51.412;5.540;2023-08-17T13:00:23;23.20;99.90
24262;DHT22;12385;51.412;5.540;2023-08-17T13:02:49;23.30;99.90
24262;DHT22;12385;51.412;5.540;2023-08-17T13:05:16;23.40;99.90
24262;DHT22;12385;51.412;5.540;2023-08-17T13:07:42;23.40;99.90
24262;DHT22;12385;51.412;5.540;2023-08-17T13:10:08;23.50;99.90
24262;DHT22;12385;51.412;5.540;2023-08-17T13:12:33;23.50;99.90
24262;DHT22;12385;51.412;5.540;2023-08-17T13:14:59;23.50;99.90
24262;DHT22;12385;51.412;5.540;2023-08-17T13:17:24;23.50;99.90
24262;DHT22;12385;51.412;5.540;2023-08-17T13:19:50;23.60;99.90
24262;DHT22;12385;51.412;5.540;2023-08-17T13:22:16;23.60;99.90
24262;DHT22;12385;51.412;5.540;2023-08-17T13:24:41;23.60;99.90
24262;DHT22;12385;51.412;5.540;2023-08-17T13:27:07;23.60;99.90
24262;DHT22;12385;51.412;5.540;2023-08-17T13:29:33;23.60;99.90
24262;DHT22;12385;51.412;5.540;2023-08-17T13:31:59;23.60;99.90
24262;DHT22;12385;51.412;5.540;2023-08-17T13:34:24;23.60;99.90
24262;DHT22;12385;51.412;5.540;2023-08-17T13:36:50;23.60;99.90
24262;DHT22;12385;51.412;5.540;2023-08-17T13:39:15;23.60;99.90
24262;DHT22;12385;51.412;5.540;2023-08-17T13:41:41;23.60;99.90
24262;DHT22;12385;51.412;5.540;2023-08-17T13:44:08;23.60;99.90
24262;DHT22;12385;51.412;5.540;2023-08-17T13:46:33;23.60;99.90
24262;DHT22;12385;51.412;5.540;2023-08-17T13:48:59;23.60;99.90
24262;DHT22;12385;51.412;5.540;2023-08-17T13:51:25;23.50;99.90
24262;DHT22;12385;51.412;5.540;2023-08-17T13:53:51;23.50;99.90
24262;DHT22;12385;51.412;5.540;2023-08-17T13:56:17;23.50;99.90
24262;DHT22;12385;51.412;5.540;2023-08-17T13:58:42;23.50;99.90
24262;DHT22;12385;51.412;5.540;2023-08-17T14:01:08;23.50;99.90
24262;DHT22;12385;51.412;5.540;2023-08-17T14:03:35;23.50;99.90
24262;DHT22;12385;51.412;5.540;2023-08-17T14:06:00;23.40;99.90
24262;DHT22;12385;51.412;5.540;2023-08-17T14:08:26;23.30;99.90
24262;DHT22;12385;51.412;5.540;2023-08-17T14:10:51;23.30;99.90
24262;DHT22;12385;51.412;5.540;2023-08-17T14:13:17;23.30;99.90
24262;DHT22;12385;51.412;5.540;2023-08-17T14:15:43;23.20;99.90
24262;DHT22;12385;51.412;5.540;2023-08-17T14:18:08;23.20;99.90
24262;DHT22;12385;51.412;5.540;2023-08-17T14:20:34;23.10;99.90
24262;DHT22;12385;51.412;5.540;2023-08-17T14:22:59;23.00;99.90
24262;DHT22;12385;51.412;5.540;2023-08-17T14:25:25;23.00;99.90
24262;DHT22;12385;51.412;5.540;2023-08-17T14:27:51;23.00;99.90
24262;DHT22;12385;51.412;5.540;2023-08-17T14:30:16;23.00;99.90
24262;DHT22;12385;51.412;5.540;2023-08-17T14:32:42;23.00;99.90
24262;DHT22;12385;51.412;5.540;2023-08-17T14:35:07;23.00;99.90
24262;DHT22;12385;51.412;5.540;2023-08-17T14:37:33;23.00;99.90
24262;DHT22;12385;51.412;5.540;2023-08-17T14:39:59;23.00;99.90
24262;DHT22;12385;51.412;5.540;2023-08-17T14:42:25;23.00;99.90
24262;DHT22;12385;51.412;5.540;2023-08-17T14:44:52;23.00;99.90
24262;DHT22;12385;51.412;5.540;2023-08-17T14:47:17;23.00;99.90
24262;DHT22;12385;51.412;5.540;2023-08-17T14:49:43;23.00;99.90
24262;DHT22;12385;51.412;5.540;2023-08-17T14:52:08;23.00;99.90
24262;DHT22;12385;51.412;5.540;2023-08-17T14:54:34;23.00;99.90
24262;DHT22;12385;51.412;5.540;2023-08-17T14:56:59;23.00;99.90
24262;DHT22;12385;51.412;5.540;2023-08-17T14:59:25;23.10;99.90
24262;DHT22;12385;51.412;5.540;2023-08-17T15:01:50;23.00;99.90
24262;DHT22;12385;51.412;5.540;2023-08-17T15:04:17;23.10;99.90
24262;DHT22;12385;51.412;5.540;2023-08-17T15:06:43;23.10;99.90
24262;DHT22;12385;51.412;5.540;2023-08-17T15:09:09;23.10;99.90
24262;DHT22;12385;51.412;5.540;2023-08-17T15:11:35;23.10;99.90
24262;DHT22;12385;51.412;5.540;2023-08-17T15:14:01;23.10;99.90
24262;DHT22;12385;51.412;5.540;2023-08-17T15:16:26;23.20;99.90
24262;DHT22;12385;51.412;5.540;2023-08-17T15:18:53;23.20;99.90
24262;DHT22;12385;51.412;5.540;2023-08-17T15:21:19;23.20;99.90
24262;DHT22;12385;51.412;5.540;2023-08-17T15:23:44;23.10;99.90
24262;DHT22;12385;51.412;5.540;2023-08-17T15:26:10;23.10;99.90
24262;DHT22;12385;51.412;5.540;2023-08-17T15:28:36;23.10;99.90
24262;DHT22;12385;51.412;5.540;2023-08-17T15:31:03;23.10;99.90
24262;DHT22;12385;51.412;5.540;2023-08-17T15:33:29;23.20;99.90
24262;DHT22;12385;51.412;5.540;2023-08-17T15:35:55;23.20;99.90
24262;DHT22;12385;51.412;5.540;2023-08-17T15:38:23;23.10;99.90